createdAt,value
2022-11-27T00:00:33.127Z,20.17
2022-11-27T00:03:41.062Z,18.33
2022-11-27T00:06:46.577Z,17.30
2022-11-27T00:09:51.749Z,21.08
2022-11-27T00:12:57.130Z,22.58
2022-11-27T00:16:02.202Z,20.17
2022-11-27T00:19:10.254Z,21.25
2022-11-27T00:22:15.438Z,17.40
2022-11-27T00:25:20.596Z,19.52
2022-11-27T00:28:25.944Z,19.65
2022-11-27T00:31:32.699Z,20.60
2022-11-27T00:34:40.749Z,18.38
2022-11-27T00:37:46.104Z,22.02
2022-11-27T00:40:51.232Z,19.38
2022-11-27T00:43:57.193Z,18.83
2022-11-27T00:47:02.529Z,18.65
2022-11-27T00:50:11.339Z,14.40
2022-11-27T00:53:16.388Z,20.17
2022-11-27T00:56:23.370Z,17.92
2022-11-27T00:59:28.937Z,17.35
2022-11-27T01:02:34.254Z,20.13
2022-11-27T01:05:42.213Z,15.63
2022-11-27T01:08:47.668Z,18.65
2022-11-27T01:11:52.854Z,19.33
2022-11-27T01:14:58.141Z,17.67
2022-11-27T01:18:03.302Z,16.25
2022-11-27T01:21:11.542Z,18.67
2022-11-27T01:27:21.714Z,17.98
2022-11-27T01:30:26.960Z,17.75
2022-11-27T01:33:32.120Z,17.08
2022-11-27T01:36:40.150Z,16.27
2022-11-27T01:39:45.234Z,16.83
2022-11-27T01:42:50.396Z,17.58
2022-11-27T01:45:55.694Z,19.05
2022-11-27T01:49:03.921Z,15.43
2022-11-27T01:52:12.918Z,15.50
2022-11-27T01:55:21.898Z,17.88
2022-11-27T01:58:28.596Z,18.90
2022-11-27T02:01:33.865Z,16.27
2022-11-27T02:04:39.576Z,17.73
2022-11-27T02:07:47.826Z,19.00
2022-11-27T02:10:55.154Z,19.55
2022-11-27T02:14:04.963Z,19.87
2022-11-27T02:17:13.727Z,18.20
2022-11-27T02:20:24.876Z,15.23
2022-11-27T02:23:43.711Z,20.42
2022-11-27T02:26:56.041Z,14.10
2022-11-27T02:30:04.443Z,15.30
2022-11-27T02:33:11.638Z,16.83
2022-11-27T02:36:18.116Z,17.45
2022-11-27T02:39:25.864Z,16.13
2022-11-27T02:42:32.938Z,16.85
2022-11-27T02:45:43.313Z,14.75
2022-11-27T02:48:50.680Z,17.65
2022-11-27T02:51:58.834Z,17.20
2022-11-27T02:55:06.406Z,15.73
2022-11-27T02:58:13.513Z,15.65
2022-11-27T03:01:22.148Z,17.42
2022-11-27T03:04:30.476Z,17.92
2022-11-27T03:07:39.405Z,13.93
2022-11-27T03:10:47.846Z,19.38
2022-11-27T03:17:04.717Z,16.40
2022-11-27T03:20:13.396Z,14.25
2022-11-27T03:23:18.690Z,11.50
2022-11-27T03:26:23.858Z,17.15
2022-11-27T03:29:31.645Z,14.35
2022-11-27T03:32:39.521Z,11.02
2022-11-27T03:35:44.739Z,12.18
2022-11-27T03:38:50.887Z,14.13
2022-11-27T03:42:01.889Z,12.98
2022-11-27T03:45:09.021Z,13.75
2022-11-27T03:48:21.138Z,13.55
2022-11-27T03:51:33.268Z,12.77
2022-11-27T03:54:42.884Z,15.40
2022-11-27T03:57:53.753Z,14.10
2022-11-27T04:00:59.633Z,11.18
2022-11-27T04:04:07.698Z,14.48
2022-11-27T04:07:13.429Z,13.45
2022-11-27T04:10:18.556Z,10.77
2022-11-27T04:13:24.002Z,13.90
2022-11-27T04:16:29.353Z,10.70
2022-11-27T04:19:37.330Z,12.90
2022-11-27T04:22:42.359Z,10.68
2022-11-27T04:25:47.794Z,10.35
2022-11-27T04:28:52.806Z,9.55
2022-11-27T04:31:58.183Z,11.30
2022-11-27T04:35:05.795Z,10.40
2022-11-27T04:38:10.935Z,12.75
2022-11-27T04:41:16.660Z,12.50
2022-11-27T04:44:22.978Z,11.65
2022-11-27T04:47:28.105Z,16.58
2022-11-27T04:50:36.017Z,12.15
2022-11-27T04:53:41.059Z,12.65
2022-11-27T04:56:46.088Z,12.25
2022-11-27T04:59:51.109Z,14.85
2022-11-27T05:02:56.294Z,10.77
2022-11-27T05:06:04.315Z,11.35
2022-11-27T05:09:09.568Z,10.40
2022-11-27T05:12:14.767Z,11.85
2022-11-27T05:15:20.345Z,10.32
2022-11-27T05:18:25.650Z,10.68
2022-11-27T05:21:33.596Z,11.75
2022-11-27T05:24:39.039Z,13.23
2022-11-27T05:27:44.509Z,11.75
2022-11-27T05:30:50.437Z,9.68
2022-11-27T05:33:55.673Z,10.38
2022-11-27T05:37:03.470Z,13.07
2022-11-27T05:40:09.872Z,12.95
2022-11-27T05:43:14.920Z,10.77
2022-11-27T05:46:20.916Z,12.93
2022-11-27T05:49:25.982Z,12.18
2022-11-27T05:52:33.801Z,12.15
2022-11-27T05:55:38.846Z,10.63
2022-11-27T05:58:44.874Z,12.70
2022-11-27T06:01:49.943Z,13.95
2022-11-27T06:04:55.259Z,10.95
2022-11-27T06:08:03.161Z,14.52
2022-11-27T06:11:09.980Z,14.18
2022-11-27T06:14:15.066Z,13.75
2022-11-27T06:17:20.106Z,18.50
2022-11-27T06:20:25.619Z,13.82
2022-11-27T06:23:33.190Z,11.68
2022-11-27T06:26:38.556Z,13.70
2022-11-27T06:29:43.665Z,11.68
2022-11-27T06:32:48.965Z,14.75
2022-11-27T06:35:53.992Z,11.10
2022-11-27T06:39:01.963Z,11.35
2022-11-27T06:42:07.315Z,14.98
2022-11-27T06:45:14.421Z,15.00
2022-11-27T06:48:19.381Z,11.80
2022-11-27T06:51:25.626Z,14.02
2022-11-27T06:54:33.472Z,14.43
2022-11-27T06:57:38.627Z,12.40
2022-11-27T07:00:43.731Z,17.42
2022-11-27T07:03:49.046Z,12.00
2022-11-27T07:06:54.052Z,12.15
2022-11-27T07:10:02.445Z,11.98
2022-11-27T07:13:08.341Z,16.05
2022-11-27T07:16:14.652Z,12.52
2022-11-27T07:19:20.243Z,11.52
2022-11-27T07:22:25.545Z,15.23
2022-11-27T07:25:33.420Z,10.30
2022-11-27T07:28:38.677Z,13.30
2022-11-27T07:31:43.827Z,13.85
2022-11-27T07:34:49.314Z,12.27
2022-11-27T07:37:54.330Z,13.48
2022-11-27T07:41:05.102Z,12.55
2022-11-27T07:44:10.160Z,12.18
2022-11-27T07:47:15.477Z,10.90
2022-11-27T07:50:20.980Z,9.45
2022-11-27T07:53:26.462Z,10.50
2022-11-27T07:56:34.369Z,11.73
2022-11-27T07:59:45.750Z,11.32
2022-11-27T08:02:52.402Z,13.40
2022-11-27T08:05:57.478Z,12.40
2022-11-27T08:09:02.713Z,13.07
2022-11-27T08:12:10.726Z,15.32
2022-11-27T08:15:16.100Z,13.63
2022-11-27T08:18:21.350Z,11.27
2022-11-27T08:21:27.242Z,11.30
2022-11-27T08:24:32.279Z,13.70
2022-11-27T08:27:40.032Z,14.98
2022-11-27T08:30:45.243Z,11.38
2022-11-27T08:33:50.787Z,14.60
2022-11-27T08:36:56.059Z,14.63
2022-11-27T08:40:01.192Z,13.35
2022-11-27T08:43:09.332Z,14.70
2022-11-27T08:46:14.865Z,13.20
2022-11-27T08:49:20.212Z,13.95
2022-11-27T08:52:26.487Z,11.13
2022-11-27T08:55:31.482Z,10.35
2022-11-27T08:58:41.398Z,12.98
2022-11-27T09:01:49.668Z,13.18
2022-11-27T09:04:54.952Z,12.18
2022-11-27T09:08:02.623Z,13.38
2022-11-27T09:11:08.493Z,11.55
2022-11-27T09:14:16.494Z,13.75
2022-11-27T09:17:21.779Z,14.27
2022-11-27T09:20:26.996Z,12.82
2022-11-27T09:23:32.204Z,12.93
2022-11-27T09:26:37.430Z,12.70
2022-11-27T09:29:45.309Z,12.55
2022-11-27T09:32:50.693Z,11.70
2022-11-27T09:35:56.071Z,16.52
2022-11-27T09:39:03.733Z,12.23
2022-11-27T09:42:10.975Z,13.07
2022-11-27T09:45:19.477Z,12.10
2022-11-27T09:48:26.259Z,10.60
2022-11-27T09:51:34.298Z,12.55
2022-11-27T09:54:42.103Z,14.68
2022-11-27T09:57:52.243Z,11.88
2022-11-27T10:01:00.282Z,13.20
2022-11-27T10:04:06.669Z,11.57
2022-11-27T10:07:18.241Z,13.45
2022-11-27T10:10:28.259Z,12.57
2022-11-27T10:13:43.238Z,13.25
2022-11-27T10:16:53.946Z,13.57
2022-11-27T10:20:02.012Z,12.93
2022-11-27T10:23:14.101Z,12.45
2022-11-27T10:26:21.882Z,12.80
2022-11-27T10:29:38.092Z,13.82
2022-11-27T10:32:55.259Z,13.85
2022-11-27T10:36:01.723Z,15.57
2022-11-27T10:39:07.869Z,12.80
2022-11-27T10:42:14.550Z,13.80
2022-11-27T10:45:23.913Z,19.40
2022-11-27T10:48:31.885Z,13.55
2022-11-27T10:51:39.155Z,16.25
2022-11-27T10:54:45.142Z,18.90
2022-11-27T10:57:56.590Z,17.20
2022-11-27T11:01:04.968Z,18.55
2022-11-27T11:07:37.746Z,16.45
2022-11-27T11:10:48.015Z,19.13
2022-11-27T11:13:53.389Z,19.23
2022-11-27T11:16:58.842Z,21.50
2022-11-27T11:20:03.907Z,17.30
2022-11-27T11:23:20.279Z,16.95
2022-11-27T11:26:28.907Z,16.17
2022-11-27T11:29:35.855Z,20.58
2022-11-27T11:32:42.451Z,18.90
2022-11-27T11:35:54.452Z,17.63
2022-11-27T11:39:02.474Z,26.52
2022-11-27T11:42:12.575Z,19.35
2022-11-27T11:45:20.332Z,16.98
2022-11-27T11:48:26.805Z,18.25
2022-11-27T11:51:41.327Z,18.80
2022-11-27T11:54:52.912Z,15.75
2022-11-27T11:58:13.216Z,20.77
2022-11-27T12:01:27.262Z,18.75
2022-11-27T12:04:47.660Z,18.08
2022-11-27T12:08:10.555Z,21.77
2022-11-27T12:11:19.795Z,16.77
2022-11-27T12:14:30.804Z,17.98
2022-11-27T12:17:42.322Z,13.95
2022-11-27T12:20:56.314Z,13.40
2022-11-27T12:24:09.810Z,16.23
2022-11-27T12:27:23.587Z,16.30
2022-11-27T12:30:33.131Z,12.90
2022-11-27T12:33:45.180Z,15.77
2022-11-27T12:36:57.430Z,12.48
2022-11-27T12:40:07.759Z,12.90
2022-11-27T12:43:21.863Z,14.82
2022-11-27T12:46:30.151Z,13.88
2022-11-27T12:52:43.501Z,14.02
2022-11-27T12:58:58.626Z,12.32
2022-11-27T13:02:08.717Z,12.27
2022-11-27T13:05:16.717Z,12.90
2022-11-27T13:08:23.427Z,12.33
2022-11-27T13:11:30.693Z,18.35
2022-11-27T13:14:40.030Z,18.42
2022-11-27T13:17:46.488Z,19.33
2022-11-27T13:20:52.889Z,18.90
2022-11-27T13:23:58.193Z,20.48
2022-11-27T13:27:06.676Z,18.60
2022-11-27T13:30:21.443Z,17.73
2022-11-27T13:33:34.345Z,20.27
2022-11-27T13:36:41.981Z,19.65
2022-11-27T13:39:47.711Z,22.67
2022-11-27T13:42:55.847Z,20.30
2022-11-27T13:46:08.231Z,18.45
2022-11-27T13:49:24.057Z,19.63
2022-11-27T13:52:29.847Z,18.42
2022-11-27T13:55:36.255Z,19.38
2022-11-27T13:58:43.102Z,22.55
2022-11-27T14:02:01.396Z,20.92
2022-11-27T14:08:20.043Z,17.52
2022-11-27T14:11:36.792Z,21.73
2022-11-27T14:14:44.536Z,19.00
2022-11-27T14:17:53.610Z,23.85
2022-11-27T14:21:00.590Z,24.98
2022-11-27T14:24:07.274Z,20.15
2022-11-27T14:27:22.478Z,20.10
2022-11-27T14:30:29.684Z,23.60
2022-11-27T14:34:14.106Z,23.27
2022-11-27T14:37:03.655Z,22.42
2022-11-27T14:40:15.901Z,22.50
2022-11-27T14:43:24.262Z,21.60
2022-11-27T14:46:29.969Z,20.00
2022-11-27T14:49:38.121Z,25.55
2022-11-27T14:52:43.500Z,18.42
2022-11-27T14:55:49.530Z,22.50
2022-11-27T14:58:55.366Z,19.80
2022-11-27T15:02:01.973Z,19.02
2022-11-27T15:05:10.325Z,19.05
2022-11-27T15:08:18.326Z,20.48
2022-11-27T15:11:53.988Z,20.20
2022-11-27T15:14:49.302Z,19.27
2022-11-27T15:17:56.251Z,17.02
2022-11-27T15:21:05.365Z,16.83
2022-11-27T15:24:26.154Z,20.05
2022-11-27T15:27:34.503Z,17.75
2022-11-27T15:30:48.061Z,18.35
2022-11-27T15:33:58.304Z,17.33
2022-11-27T15:37:07.157Z,18.08
2022-11-27T15:40:25.571Z,18.27
2022-11-27T15:46:37.695Z,16.58
2022-11-27T15:49:42.925Z,20.02
2022-11-27T15:52:51.129Z,17.08
2022-11-27T15:55:56.178Z,19.92
2022-11-27T15:59:01.489Z,19.83
2022-11-27T16:02:06.958Z,21.52
2022-11-27T16:05:12.776Z,20.50
2022-11-27T16:08:20.877Z,22.05
2022-11-27T16:11:26.351Z,21.60
2022-11-27T16:14:31.531Z,23.15
2022-11-27T16:17:36.884Z,19.55
2022-11-27T16:20:42.100Z,19.83
2022-11-27T16:23:50.211Z,16.88
2022-11-27T16:26:55.246Z,20.05
2022-11-27T16:30:00.600Z,19.98
2022-11-27T16:33:05.932Z,18.08
2022-11-27T16:36:12.236Z,20.50
2022-11-27T16:39:20.541Z,18.05
2022-11-27T16:45:30.898Z,19.60
2022-11-27T16:48:36.716Z,21.63
2022-11-27T16:51:42.701Z,21.77
2022-11-27T16:54:52.131Z,19.65
2022-11-27T16:57:57.692Z,21.08
2022-11-27T17:01:03.103Z,21.30
2022-11-27T17:04:09.422Z,19.23
2022-11-27T17:07:14.778Z,20.58
2022-11-27T17:10:23.028Z,20.98
2022-11-27T17:13:28.273Z,23.15
2022-11-27T17:16:33.482Z,20.98
2022-11-27T17:19:39.191Z,22.92
2022-11-27T17:22:45.838Z,18.98
2022-11-27T17:25:53.655Z,20.05
2022-11-27T17:29:00.425Z,19.88
2022-11-27T17:32:07.483Z,19.52
2022-11-27T17:35:13.001Z,18.95
2022-11-27T17:38:18.244Z,22.70
2022-11-27T17:41:26.889Z,19.85
2022-11-27T17:47:36.732Z,23.92
2022-11-27T17:50:43.132Z,25.77
2022-11-27T17:53:48.617Z,21.50
2022-11-27T17:56:56.601Z,23.70
2022-11-27T18:00:02.221Z,25.85
2022-11-27T18:03:11.367Z,22.52
2022-11-27T18:06:17.718Z,22.00
2022-11-27T18:09:23.078Z,26.00
2022-11-27T18:12:31.332Z,23.30
2022-11-27T18:15:37.810Z,20.95
2022-11-27T18:18:43.833Z,24.48
2022-11-27T18:21:49.081Z,21.08
2022-11-27T18:24:54.322Z,28.67
2022-11-27T18:28:03.572Z,26.30
2022-11-27T18:31:08.956Z,21.33
2022-11-27T18:34:14.345Z,22.35
2022-11-27T18:37:19.457Z,27.10
2022-11-27T18:40:24.641Z,27.30
2022-11-27T18:43:32.701Z,25.30
2022-11-27T18:46:37.951Z,28.98
2022-11-27T18:49:43.679Z,26.55
2022-11-27T18:52:50.897Z,30.58
2022-11-27T18:55:55.953Z,32.72
2022-11-27T18:59:06.758Z,25.85
2022-11-27T19:02:13.649Z,25.90
2022-11-27T19:05:19.070Z,30.90
2022-11-27T19:08:24.135Z,31.48
2022-11-27T19:11:31.344Z,29.77
2022-11-27T19:14:39.711Z,29.83
2022-11-27T19:17:45.766Z,32.47
2022-11-27T19:20:51.191Z,28.98
2022-11-27T19:23:57.977Z,27.45
2022-11-27T19:27:03.204Z,30.52
2022-11-27T19:30:11.634Z,28.55
2022-11-27T19:36:21.890Z,25.77
2022-11-27T19:39:28.950Z,30.85
2022-11-27T19:42:34.653Z,27.05
2022-11-27T19:45:42.985Z,27.38
2022-11-27T19:48:48.294Z,27.23
2022-11-27T19:51:53.778Z,29.70
2022-11-27T19:54:59.345Z,25.75
2022-11-27T19:58:04.907Z,25.65
2022-11-27T20:01:14.257Z,26.88
2022-11-27T20:04:19.556Z,26.52
2022-11-27T20:07:24.822Z,26.38
2022-11-27T20:10:30.458Z,25.65
2022-11-27T20:13:35.706Z,24.10
2022-11-27T20:16:44.018Z,28.75
2022-11-27T20:19:49.223Z,23.83
2022-11-27T20:22:56.209Z,30.58
2022-11-27T20:26:01.928Z,26.35
2022-11-27T20:29:07.554Z,26.65
2022-11-27T20:32:15.669Z,28.77
2022-11-27T20:35:21.028Z,30.13
2022-11-27T20:38:26.695Z,27.42
2022-11-27T20:41:32.406Z,27.35
2022-11-27T20:44:38.077Z,25.85
2022-11-27T20:47:46.208Z,27.02
2022-11-27T20:50:52.316Z,26.33
2022-11-27T20:53:59.144Z,25.92
2022-11-27T20:57:04.479Z,27.20
2022-11-27T21:00:11.879Z,28.77
2022-11-27T21:03:19.810Z,30.45
2022-11-27T21:06:26.248Z,29.80
2022-11-27T21:09:32.287Z,29.13
2022-11-27T21:12:37.598Z,24.90
2022-11-27T21:15:47.589Z,27.10
2022-11-27T21:18:59.255Z,27.33
2022-11-27T21:22:04.662Z,29.73
2022-11-27T21:25:10.597Z,29.48
2022-11-27T21:28:17.612Z,31.53
2022-11-27T21:31:23.736Z,28.40
2022-11-27T21:34:31.844Z,26.67
2022-11-27T21:37:37.095Z,28.60
2022-11-27T21:40:42.629Z,34.22
2022-11-27T21:43:48.059Z,34.08
2022-11-27T21:46:54.362Z,29.20
2022-11-27T21:50:03.247Z,32.88
2022-11-27T21:53:09.051Z,30.77
2022-11-27T21:56:16.272Z,29.88
2022-11-27T21:59:21.364Z,35.67
2022-11-27T22:02:26.847Z,34.50
2022-11-27T22:05:34.577Z,33.08
2022-11-27T22:11:58.901Z,27.60
2022-11-27T22:15:04.295Z,31.20
2022-11-27T22:18:09.660Z,31.60
2022-11-27T22:21:20.857Z,31.35
2022-11-27T22:24:26.537Z,27.17
2022-11-27T22:27:31.602Z,24.75
2022-11-27T22:30:36.867Z,29.38
2022-11-27T22:33:42.538Z,33.58
2022-11-27T22:36:50.322Z,32.30
2022-11-27T22:39:55.444Z,29.88
2022-11-27T22:43:01.146Z,36.10
2022-11-27T22:46:07.537Z,28.73
2022-11-27T22:49:13.997Z,27.50
2022-11-27T22:52:21.725Z,30.05
2022-11-27T22:55:27.817Z,31.55
2022-11-27T22:58:36.056Z,29.95
2022-11-27T23:01:43.767Z,29.13
2022-11-27T23:04:49.452Z,30.80
2022-11-27T23:07:57.798Z,32.08
2022-11-27T23:11:03.212Z,28.70
2022-11-27T23:14:08.224Z,30.58
2022-11-27T23:17:13.654Z,34.55
2022-11-27T23:20:18.838Z,29.35
2022-11-27T23:23:27.100Z,30.52
2022-11-27T23:26:32.268Z,30.70
2022-11-27T23:29:37.538Z,35.08
2022-11-27T23:32:44.231Z,34.38
2022-11-27T23:35:49.670Z,31.35
2022-11-27T23:38:57.461Z,28.55
2022-11-27T23:42:02.725Z,31.35
2022-11-27T23:45:08.559Z,31.42
2022-11-27T23:48:13.620Z,29.83
2022-11-27T23:51:19.693Z,32.95
2022-11-27T23:54:27.378Z,25.25
2022-11-27T23:57:32.701Z,32.60
